Time;durP1;ratioP1;P1;durP2;ratioP2;P2;SDS_P1;SDS_P2;PMS_P1;PMS_P2;Temp;Humidity;BMP_temperature;BMP_pressure;BME280_temperature;BME280_humidity;BME280_pressure;Samples;Min_cycle;Max_cycle;Signal;HPM_P1;HPM_P2
2022/06/06 00:02:18;;;;;;;10.33;4.97;;;;;;;20.70;100.00;63019.78;5091337;28;20200;-73
2022/06/06 00:04:45;;;;;;;9.90;5.70;;;;;;;20.68;100.00;63012.44;5091247;28;20200;-73
2022/06/06 00:07:13;;;;;;;6.73;5.13;;;;;;;20.66;100.00;63016.00;5091044;28;20207;-73
2022/06/06 00:09:39;;;;;;;9.23;5.33;;;;;;;20.57;100.00;63001.06;5091078;28;20262;-73
2022/06/06 00:12:07;;;;;;;7.50;5.00;;;;;;;20.56;100.00;63004.63;5090896;28;20248;-73
2022/06/06 00:14:35;;;;;;;8.07;5.07;;;;;;;20.64;100.00;63006.06;5091052;28;20227;-73
2022/06/06 00:17:04;;;;;;;6.53;4.60;;;;;;;19.97;100.00;62941.34;5090270;28;20219;-73
2022/06/06 00:19:31;;;;;;;7.13;4.17;;;;;;;20.47;100.00;62995.44;5091313;28;20203;-73
2022/06/06 00:21:58;;;;;;;6.20;4.20;;;;;;;20.45;100.00;62990.69;5090822;28;20199;-74
2022/06/06 00:24:27;;;;;;;10.03;3.97;;;;;;;20.49;100.00;62992.41;5090753;28;20674;-73
2022/06/06 00:26:54;;;;;;;6.67;4.30;;;;;;;20.48;100.00;62990.78;5090911;28;20637;-75
2022/06/06 00:29:22;;;;;;;6.70;4.10;;;;;;;20.52;100.00;62997.72;5091108;28;20215;-74
2022/06/06 00:34:51;;;;;;;6.07;3.20;;;;;;;20.50;100.00;62993.50;5089868;28;20238;-73
2022/06/06 00:37:24;;;;;;;5.83;3.40;;;;;;;20.20;100.00;62961.06;5080698;28;20196;-73
2022/06/06 00:39:51;;;;;;;5.27;3.33;;;;;;;20.32;100.00;62976.63;5090665;28;20640;-74
2022/06/06 00:42:24;;;;;;;4.43;3.13;;;;;;;20.29;100.00;62975.97;5090807;28;20310;-72
2022/06/06 00:45:36;;;;;;;4.30;3.13;;;;;;;20.37;100.00;62979.44;5090128;28;20207;-73
2022/06/06 00:48:13;;;;;;;4.43;3.37;;;;;;;20.48;100.00;62991.34;5090864;28;20212;-73
2022/06/06 00:50:52;;;;;;;4.33;3.20;;;;;;;20.58;100.00;63007.34;5078425;28;20592;-73
2022/06/06 00:53:21;;;;;;;4.77;3.17;;;;;;;20.58;100.00;63002.16;5090882;28;20196;-74
2022/06/06 00:55:52;;;;;;;6.70;3.43;;;;;;;20.72;100.00;63016.75;5090712;28;20262;-74
2022/06/06 00:58:23;;;;;;;5.00;3.30;;;;;;;20.78;100.00;63028.97;5091149;28;20204;-73
2022/06/06 01:00:51;;;;;;;4.70;3.10;;;;;;;20.55;100.00;63004.09;5090468;28;20731;-73
2022/06/06 01:03:22;;;;;;;3.73;2.80;;;;;;;20.91;100.00;63043.03;5091457;28;20204;-75
2022/06/06 01:05:52;;;;;;;6.37;3.40;;;;;;;21.02;100.00;63054.97;5083018;28;20199;-72
2022/06/06 01:08:22;;;;;;;6.87;3.53;;;;;;;21.08;100.00;63057.78;5094249;28;20222;-73
2022/06/06 01:10:50;;;;;;;5.30;3.27;;;;;;;20.72;100.00;63022.47;5094046;28;20237;-73
2022/06/06 01:13:18;;;;;;;6.47;3.53;;;;;;;20.51;100.00;62997.16;5094019;28;20215;-74
2022/06/06 01:15:59;;;;;;;6.43;3.83;;;;;;;20.58;100.00;63002.16;5094788;28;20195;-75
2022/06/06 01:18:35;;;;;;;6.60;3.90;;;;;;;20.51;100.00;62997.16;5094702;28;20286;-73
2022/06/06 01:21:44;;;;;;;6.87;3.57;;;;;;;20.56;100.00;63002.59;5093931;28;20711;-73
2022/06/06 01:24:33;;;;;;;5.77;3.97;;;;;;;20.58;100.00;63004.75;5094110;28;20242;-73
2022/06/06 01:27:18;;;;;;;7.70;3.57;;;;;;;20.67;100.00;63017.06;5094164;28;20204;-73
2022/06/06 01:29:51;;;;;;;8.33;3.80;;;;;;;20.62;100.00;63009.06;5092138;28;20694;-74
2022/06/06 01:32:22;;;;;;;4.23;3.60;;;;;;;20.43;100.00;62991.09;5093744;28;20741;-74
2022/06/06 01:34:51;;;;;;;6.90;4.27;;;;;;;20.46;100.00;62988.63;5093694;28;20239;-73
2022/06/06 01:37:29;;;;;;;6.13;3.70;;;;;;;20.46;100.00;62991.78;5093454;28;20210;-74
2022/06/06 01:39:58;;;;;;;9.33;4.13;;;;;;;20.44;100.00;62992.19;5075527;28;20632;-74
2022/06/06 01:42:31;;;;;;;5.53;4.10;;;;;;;20.44;100.00;62989.06;5093011;28;20208;-73
2022/06/06 01:45:04;;;;;;;6.20;3.90;;;;;;;20.46;100.00;62994.34;5093790;28;20204;-74
2022/06/06 01:47:38;;;;;;;6.00;4.30;;;;;;;20.12;100.00;62955.50;5093514;28;20199;-74
2022/06/06 01:50:07;;;;;;;13.90;4.47;;;;;;;20.34;100.00;62978.25;5093741;28;20230;-73
2022/06/06 01:52:51;;;;;;;11.93;5.23;;;;;;;20.53;100.00;63001.91;5093745;28;20268;-73
2022/06/06 01:55:19;;;;;;;9.97;5.90;;;;;;;20.57;100.00;63006.25;5094945;28;20617;-73
2022/06/06 01:57:47;;;;;;;28.00;8.10;;;;;;;20.55;100.00;62998.91;5094326;28;20208;-74
2022/06/06 02:00:21;;;;;;;16.80;7.30;;;;;;;19.95;100.00;62934.56;5093569;28;20206;-74
2022/06/06 02:02:48;;;;;;;18.33;7.60;;;;;;;19.83;100.00;62926.22;5093639;28;20256;-74
2022/06/06 02:05:17;;;;;;;17.23;7.30;;;;;;;19.49;100.00;62889.47;5093747;28;20192;-76
2022/06/06 02:07:45;;;;;;;16.73;7.73;;;;;;;19.74;100.00;62916.50;5093369;28;20584;-76
2022/06/06 02:10:13;;;;;;;17.87;8.20;;;;;;;19.64;100.00;62900.50;5093354;28;20674;-74
2022/06/06 02:12:41;;;;;;;20.83;9.57;;;;;;;19.33;100.00;62870.69;5093113;28;20210;-76
2022/06/06 02:15:12;;;;;;;22.20;9.60;;;;;;;19.61;100.00;62897.81;5092895;28;20231;-73
2022/06/06 02:17:41;;;;;;;23.97;9.40;;;;;;;19.83;100.00;62926.22;5092472;28;20200;-75
2022/06/06 02:20:11;;;;;;;18.83;9.40;;;;;;;19.64;100.00;62900.50;5092329;28;20311;-75
2022/06/06 02:22:39;;;;;;;21.67;9.50;;;;;;;19.57;100.00;62898.66;5092901;28;20208;-75
2022/06/06 02:25:07;;;;;;;15.30;8.37;;;;;;;19.22;100.00;62858.78;5092826;28;20214;-75
2022/06/06 02:27:35;;;;;;;18.10;8.27;;;;;;;19.19;100.00;62858.13;5092691;28;20211;-76
2022/06/06 02:30:04;;;;;;;22.77;8.60;;;;;;;19.26;100.00;62865.13;5093289;28;20196;-75
2022/06/06 02:32:32;;;;;;;19.07;7.77;;;;;;;19.27;100.00;62866.22;5092845;28;20208;-75
2022/06/06 02:35:01;;;;;;;14.03;7.20;;;;;;;18.54;100.00;62787.91;5092772;28;20231;-75
2022/06/06 02:37:28;;;;;;;18.47;7.90;;;;;;;18.62;100.00;62796.56;5092575;28;20589;-75
2022/06/06 02:39:57;;;;;;;13.43;8.30;;;;;;;19.07;100.00;62840.00;5092616;28;20253;-74
2022/06/06 02:42:24;;;;;;;12.63;8.10;;;;;;;19.12;100.00;62845.38;5092870;28;20195;-74
2022/06/06 02:44:52;;;;;;;13.83;7.83;;;;;;;18.91;100.00;62822.72;5092273;28;20207;-74
2022/06/06 02:47:20;;;;;;;20.50;7.60;;;;;;;19.29;100.00;62866.34;5092373;28;20620;-74
2022/06/06 02:49:47;;;;;;;13.90;8.50;;;;;;;19.17;100.00;62850.78;5092253;28;20200;-76
2022/06/06 02:52:15;;;;;;;15.87;9.23;;;;;;;19.23;100.00;62857.28;5092325;28;20196;-75
2022/06/06 02:54:43;;;;;;;14.50;7.60;;;;;;;18.87;100.00;62815.81;5092054;28;20618;-75
2022/06/06 02:57:11;;;;;;;16.37;8.63;;;;;;;19.42;100.00;62876.75;5092156;28;20203;-75
2022/06/06 02:59:44;;;;;;;15.87;7.97;;;;;;;19.41;100.00;62881.38;5092361;28;20690;-77
2022/06/06 03:02:11;;;;;;;16.73;8.40;;;;;;;19.21;100.00;62860.28;5092089;28;20286;-75
2022/06/06 03:04:39;;;;;;;12.77;8.20;;;;;;;19.36;100.00;62876.50;5092144;28;20569;-76
2022/06/06 03:07:22;;;;;;;12.83;8.47;;;;;;;19.42;100.00;62881.91;5092084;28;20211;-75
2022/06/06 03:10:01;;;;;;;16.87;8.03;;;;;;;19.25;100.00;62864.59;5092180;28;20678;-75
2022/06/06 03:12:45;;;;;;;15.57;8.17;;;;;;;19.20;100.00;62856.59;5092078;28;20286;-75
2022/06/06 03:15:38;;;;;;;16.20;9.10;;;;;;;19.34;100.00;62869.16;5092418;28;20280;-73
2022/06/06 03:21:19;;;;;;;14.70;9.67;;;;;;;19.17;100.00;62850.25;5080435;28;20761;-74
2022/06/06 03:24:04;;;;;;;17.03;8.67;;;;;;;19.09;100.00;62847.31;5091688;28;20195;-74
2022/06/06 03:26:44;;;;;;;16.10;9.37;;;;;;;18.99;100.00;62833.94;5091886;28;20207;-75
2022/06/06 03:29:26;;;;;;;14.73;8.23;;;;;;;18.98;100.00;62832.84;5091967;28;20199;-74
2022/06/06 03:32:02;;;;;;;11.77;7.87;;;;;;;18.87;100.00;62823.56;5092054;28;20588;-73
2022/06/06 03:34:46;;;;;;;15.47;7.87;;;;;;;18.91;100.00;62822.72;5091870;28;20614;-75
2022/06/06 03:37:23;;;;;;;16.10;8.40;;;;;;;18.60;100.00;62788.69;5091721;28;20230;-74
2022/06/06 03:40:03;;;;;;;16.63;8.77;;;;;;;18.36;100.00;62763.31;5091506;28;20732;-73
2022/06/06 03:42:37;;;;;;;16.67;8.57;;;;;;;18.52;100.00;62781.13;5091304;28;20203;-75
2022/06/06 03:45:15;;;;;;;19.67;7.93;;;;;;;18.45;100.00;62778.22;5091961;28;20222;-74
2022/06/06 03:47:56;;;;;;;16.33;8.33;;;;;;;18.48;100.00;62781.44;5091491;28;20200;-74
2022/06/06 03:50:30;;;;;;;17.00;9.30;;;;;;;18.55;100.00;62789.00;5091474;28;20207;-73
2022/06/06 03:53:03;;;;;;;14.83;9.53;;;;;;;18.54;100.00;62785.34;5091537;28;20689;-73
2022/06/06 03:55:56;;;;;;;16.77;10.03;;;;;;;18.52;100.00;62780.59;5079421;28;20718;-74
2022/06/06 03:58:24;;;;;;;17.87;9.57;;;;;;;18.24;100.00;62750.34;5078585;28;20264;-73
2022/06/06 04:00:55;;;;;;;17.80;9.50;;;;;;;18.80;100.00;62810.81;5091265;28;20269;-73
2022/06/06 04:03:24;;;;;;;17.87;10.27;;;;;;;18.76;100.00;62806.50;5091168;28;20202;-74
2022/06/06 04:05:51;;;;;;;15.93;10.80;;;;;;;18.62;100.00;62790.84;5091327;28;20670;-73
2022/06/06 04:08:18;;;;;;;14.53;9.90;;;;;;;18.90;100.00;62821.63;5091314;28;20222;-76
2022/06/06 04:10:56;;;;;;;16.17;9.67;;;;;;;19.05;100.00;62840.41;5091143;28;20204;-74
2022/06/06 04:13:37;;;;;;;17.57;9.40;;;;;;;19.10;100.00;62848.38;5090886;28;20199;-75
2022/06/06 04:16:18;;;;;;;19.40;10.23;;;;;;;19.22;100.00;62858.78;5080012;28;20227;-75
2022/06/06 04:18:56;;;;;;;16.17;10.23;;;;;;;18.97;100.00;62833.81;5091075;28;20207;-75
2022/06/06 04:21:33;;;;;;;16.27;9.93;;;;;;;18.96;100.00;62833.25;5091196;28;20214;-74
2022/06/06 04:24:15;;;;;;;15.03;9.70;;;;;;;19.20;100.00;62853.47;5091170;28;20256;-75
2022/06/06 04:26:59;;;;;;;15.53;10.03;;;;;;;19.27;100.00;62861.59;5090887;28;20720;-75
2022/06/06 04:29:39;;;;;;;16.67;9.00;;;;;;;18.96;100.00;62828.09;5091175;28;20200;-73
2022/06/06 04:32:15;;;;;;;15.13;9.70;;;;;;;18.96;100.00;62830.69;5090802;28;20265;-72
2022/06/06 04:34:50;;;;;;;15.73;9.80;;;;;;;19.42;100.00;62877.25;5090898;28;20231;-74
2022/06/06 04:37:22;;;;;;;17.23;9.77;;;;;;;19.18;100.00;62851.88;5090727;28;20199;-74
2022/06/06 04:39:56;;;;;;;16.83;9.00;;;;;;;18.76;100.00;62806.50;5091277;28;20582;-73
2022/06/06 04:42:36;;;;;;;13.73;8.50;;;;;;;19.31;100.00;62865.91;5093063;28;20702;-74
2022/06/06 04:45:10;;;;;;;12.60;9.30;;;;;;;19.04;100.00;62839.31;5094912;28;20195;-74
2022/06/06 04:47:39;;;;;;;15.73;9.47;;;;;;;19.48;100.00;62885.81;5094986;28;20252;-75
2022/06/06 04:50:09;;;;;;;13.40;8.57;;;;;;;19.83;100.00;62923.63;5094694;28;20222;-73
2022/06/06 04:52:41;;;;;;;13.90;7.67;;;;;;;20.01;100.00;62940.50;5094543;28;20203;-73
2022/06/06 04:55:10;;;;;;;12.23;7.77;;;;;;;19.95;100.00;62934.56;5094536;28;20223;-74
2022/06/06 04:57:43;;;;;;;10.40;7.47;;;;;;;20.13;100.00;62950.88;5094362;28;20215;-72
2022/06/06 05:00:11;;;;;;;11.33;7.50;;;;;;;20.26;100.00;62967.56;5083617;28;20257;-74
2022/06/06 05:02:38;;;;;;;15.33;8.50;;;;;;;20.47;100.00;62987.66;5091317;28;20207;-73
2022/06/06 05:05:07;;;;;;;12.13;7.97;;;;;;;20.16;100.00;62951.53;5094375;28;20211;-75
2022/06/06 05:08:02;;;;;;;13.47;8.30;;;;;;;20.94;100.00;63041.09;5093784;28;20241;-74
2022/06/06 05:10:49;;;;;;;13.67;9.33;;;;;;;21.02;100.00;63046.66;5094754;28;20363;-76
2022/06/06 05:13:47;;;;;;;17.73;8.77;;;;;;;21.17;100.00;63070.13;5093985;28;20203;-73
2022/06/06 05:16:37;;;;;;;12.33;7.70;;;;;;;20.75;100.00;63020.53;5068420;28;20284;-73
2022/06/06 05:19:24;;;;;;;13.87;7.80;;;;;;;20.88;100.00;63029.44;5094649;28;20203;-74
2022/06/06 05:22:08;;;;;;;12.47;6.70;;;;;;;21.60;100.00;63111.47;5092298;28;20207;-74
2022/06/06 05:24:53;;;;;;;12.33;7.90;;;;;;;21.65;100.00;63116.88;5081671;28;20202;-74
2022/06/06 05:27:39;;;;;;;16.00;8.87;;;;;;;21.70;100.00;63122.84;5094324;28;20200;-73
2022/06/06 05:30:14;;;;;;;14.10;7.53;;;;;;;21.60;100.00;63111.47;5094262;28;20208;-76
2022/06/06 05:33:06;;;;;;;10.93;6.97;;;;;;;21.68;100.00;63122.72;5096160;28;20207;-73
2022/06/06 05:36:20;;;;;;;12.37;7.07;;;;;;;21.91;100.00;63145.06;5092101;28;20235;-73
2022/06/06 05:39:11;;;;;;;14.50;7.43;;;;;;;22.35;100.00;63194.75;5008907;28;20210;-75
2022/06/06 05:41:57;;;;;;;11.70;7.40;;;;;;;22.27;100.00;63184.03;4999220;28;20222;-74
2022/06/06 05:44:34;;;;;;;12.20;6.70;;;;;;;22.78;100.00;63238.78;5080456;28;20202;-74
2022/06/06 05:47:14;;;;;;;11.10;6.10;;;;;;;23.00;100.00;63262.63;5093979;28;20651;-73
2022/06/06 05:49:56;;;;;;;10.80;7.60;;;;;;;23.20;100.00;63283.78;5094016;28;20268;-75
2022/06/06 05:52:52;;;;;;;11.17;7.90;;;;;;;23.38;100.00;63303.84;5081056;28;20211;-75
2022/06/06 05:55:46;;;;;;;13.90;7.73;;;;;;;23.45;100.00;63316.09;5093423;28;20276;-75
2022/06/06 05:58:37;;;;;;;10.80;6.90;;;;;;;23.56;100.00;63322.81;5093331;28;20200;-76
2022/06/06 06:01:18;;;;;;;11.27;7.83;;;;;;;23.66;100.00;63331.06;5090479;28;20200;-73
2022/06/06 06:04:05;;;;;;;10.90;7.20;;;;;;;23.70;100.00;63338.00;5093332;28;20200;-73
2022/06/06 06:06:39;;;;;;;12.30;7.03;;;;;;;23.45;100.00;63310.88;5093419;28;20200;-74
2022/06/06 06:09:26;;;;;;;12.73;6.73;;;;;;;24.24;100.00;63396.59;5093175;28;20199;-74
2022/06/06 06:12:25;;;;;;;15.80;6.27;;;;;;;23.94;100.00;63369.25;5093403;28;20264;-73
2022/06/06 06:15:03;;;;;;;12.17;7.10;;;;;;;23.80;100.00;63348.84;5092968;28;20200;-73
2022/06/06 06:17:34;;;;;;;11.10;7.23;;;;;;;23.68;100.00;63335.28;5079321;28;20572;-75
2022/06/06 06:20:08;;;;;;;10.77;6.67;;;;;;;23.55;100.00;63321.72;5093364;28;20199;-75
2022/06/06 06:22:39;;;;;;;10.63;6.73;;;;;;;23.40;100.00;63305.47;5079185;28;20204;-75
2022/06/06 06:25:08;;;;;;;13.43;6.67;;;;;;;23.46;100.00;63311.97;5092739;28;20253;-73
2022/06/06 06:27:36;;;;;;;15.40;7.13;;;;;;;23.76;100.00;63341.91;5092417;28;20199;-74
2022/06/06 06:30:06;;;;;;;11.87;6.83;;;;;;;24.02;100.00;63372.72;5092555;28;20210;-75
2022/06/06 06:32:59;;;;;;;14.00;7.23;;;;;;;24.26;100.00;63404.00;5092348;28;20647;-74
2022/06/06 06:35:37;;;;;;;17.33;7.87;;;;;;;24.19;100.00;63391.19;5089353;28;20243;-75
2022/06/06 06:38:21;;;;;;;11.17;7.30;;;;;;;24.48;100.00;63422.09;5092785;28;20199;-74
2022/06/06 06:40:56;;;;;;;12.20;7.73;;;;;;;24.65;100.00;63440.53;5092406;28;20249;-74
2022/06/06 06:43:37;;;;;;;10.87;6.97;;;;;;;24.66;100.00;63441.09;5092596;28;20302;-73
2022/06/06 06:46:13;;;;;;;12.47;6.83;;;;;;;24.37;100.00;63410.16;5092626;28;20208;-74
2022/06/06 06:48:45;;;;;;;13.40;7.97;;;;;;;24.44;100.00;63417.22;5092542;28;20830;-73
2022/06/06 06:51:21;;;;;;;20.10;8.73;;;;;;;24.50;100.00;63421.13;5092119;28;20203;-74
2022/06/06 06:54:23;;;;;;;14.00;7.43;;;;;;;24.49;100.00;63422.66;5092402;28;20206;-74
2022/06/06 06:57:12;;;;;;;16.67;7.83;;;;;;;24.83;100.00;63459.59;5080896;28;20231;-74
2022/06/06 06:59:58;;;;;;;16.80;7.63;;;;;;;24.89;100.00;63466.63;5092113;28;20204;-76
2022/06/06 07:08:37;;;;;;;15.73;8.20;;;;;;;25.33;100.00;63513.88;5092159;28;20211;-74
2022/06/06 07:11:34;;;;;;;18.87;7.60;;;;;;;25.71;100.00;63554.63;5092345;28;20559;-75
2022/06/06 07:14:07;;;;;;;16.60;7.90;;;;;;;26.02;100.00;63585.16;5078199;28;20203;-74
2022/06/06 07:16:36;;;;;;;13.27;8.00;;;;;;;25.91;100.00;63576.38;5092146;28;20246;-74
2022/06/06 07:19:08;;;;;;;17.60;8.60;;;;;;;25.86;100.00;63571.47;5092657;28;20214;-74
2022/06/06 07:21:36;;;;;;;20.33;8.80;;;;;;;26.66;100.00;63657.91;5091797;28;20202;-76
2022/06/06 07:24:08;;;;;;;16.13;8.83;;;;;;;27.00;100.00;63689.13;5091697;28;20196;-74
2022/06/06 07:26:38;;;;;;;18.17;9.40;;;;;;;26.87;100.00;63682.84;5091486;28;20281;-74
2022/06/06 07:29:07;;;;;;;15.47;8.50;;;;;;;26.62;100.00;63653.03;5091610;28;20196;-74
2022/06/06 07:32:01;;;;;;;18.73;8.43;;;;;;;26.90;100.00;63688.72;5091546;28;20294;-74
2022/06/06 07:35:06;;;;;;;16.30;9.03;;;;;;;27.13;100.00;63713.72;5077259;28;20227;-74
2022/06/06 07:37:52;;;;;;;18.83;9.20;;;;;;;27.37;100.00;63739.31;5064459;28;20196;-74
2022/06/06 07:40:34;;;;;;;19.53;7.80;;;;;;;27.41;100.00;63733.19;5089434;28;20272;-74
2022/06/06 07:43:19;;;;;;;14.17;9.50;;;;;;;27.13;100.00;63708.50;5091809;28;20202;-73
2022/06/06 07:45:48;;;;;;;16.77;7.73;;;;;;;26.92;100.00;63685.13;5091463;28;20203;-73
2022/06/06 07:48:32;;;;;;;15.03;9.27;;;;;;;26.47;100.00;63636.72;5091421;28;20207;-72
2022/06/06 07:51:07;;;;;;;13.40;9.17;;;;;;;27.08;100.00;63697.84;5091360;28;20206;-74
2022/06/06 07:53:42;;;;;;;18.27;9.07;;;;;;;27.44;100.00;63739.66;5091274;28;20284;-73
2022/06/06 07:56:19;;;;;;;14.97;8.50;;;;;;;27.77;100.00;63777.09;5091370;28;20312;-73
2022/06/06 07:58:56;;;;;;;15.27;8.47;;;;;;;27.96;100.00;63800.41;5091216;28;20195;-75
2022/06/06 08:01:31;;;;;;;22.77;10.97;;;;;;;27.66;100.00;63765.09;5091308;28;20283;-74
2022/06/06 08:04:09;;;;;;;16.80;7.97;;;;;;;27.82;100.00;63783.06;5073366;28;20202;-73
2022/06/06 08:06:44;;;;;;;15.50;8.17;;;;;;;27.62;100.00;63763.91;5091142;28;20212;-74
2022/06/06 08:09:53;;;;;;;15.10;6.63;;;;;;;27.34;100.00;63730.84;5091184;28;20662;-75
2022/06/06 08:12:42;;;;;;;16.13;6.17;;;;;;;27.36;100.00;63733.56;4999139;28;20264;-74
2022/06/06 08:15:19;;;;;;;12.73;6.53;;;;;;;26.84;100.00;63676.41;5008884;28;20213;-74
2022/06/06 08:18:04;;;;;;;15.90;6.93;;;;;;;27.14;100.00;63709.59;5062806;28;20671;-72
2022/06/06 08:20:41;;;;;;;14.30;6.67;;;;;;;27.21;100.00;63717.19;5092626;28;20211;-75
2022/06/06 08:23:10;;;;;;;12.03;6.20;;;;;;;27.42;100.00;63739.53;5095233;28;20199;-73
2022/06/06 08:25:38;;;;;;;16.73;5.90;;;;;;;27.31;100.00;63728.09;5094956;28;20200;-74
2022/06/06 08:28:12;;;;;;;11.20;5.43;;;;;;;26.98;100.00;63697.44;5095084;28;20663;-74
2022/06/06 08:30:42;;;;;;;14.43;5.83;;;;;;;26.83;100.00;63678.47;5095034;28;20911;-75
2022/06/06 08:33:09;;;;;;;13.03;5.93;;;;;;;27.09;100.00;63706.75;5094988;28;20639;-74
2022/06/06 08:35:47;;;;;;;15.13;6.23;;;;;;;27.13;100.00;63707.94;5094671;28;20240;-73
2022/06/06 08:38:30;;;;;;;16.40;5.83;;;;;;;26.98;100.00;63692.19;5094896;28;20223;-75
2022/06/06 08:41:38;;;;;;;16.43;5.60;;;;;;;26.75;100.00;63672.41;5094761;28;20227;-74
2022/06/06 08:44:26;;;;;;;20.73;6.23;;;;;;;26.73;100.00;63665.53;5084420;28;20211;-75
2022/06/06 08:47:29;;;;;;;14.37;5.53;;;;;;;26.83;100.00;63675.88;5094656;28;20654;-75
2022/06/06 08:53:37;;;;;;;14.63;4.70;;;;;;;25.31;100.00;63514.31;5094669;28;20210;-74
2022/06/06 08:56:17;;;;;;;9.93;3.80;;;;;;;24.20;100.00;63389.66;5094577;28;20367;-74
2022/06/06 08:59:12;;;;;;;10.37;4.03;;;;;;;23.26;100.00;63287.66;5094533;28;20199;-73
2022/06/06 09:02:03;;;;;;;8.20;3.13;;;;;;;22.82;100.00;63242.56;5094546;28;20202;-74
2022/06/06 09:05:03;;;;;;;11.57;4.47;;;;;;;21.84;100.00;63138.00;5079788;28;20523;-74
2022/06/06 09:08:10;;;;;;;19.87;6.00;;;;;;;21.55;100.00;63108.66;5049138;28;20208;-74
2022/06/06 09:11:00;;;;;;;16.40;4.50;;;;;;;21.11;100.00;63058.44;5083565;28;20290;-75
2022/06/06 09:13:57;;;;;;;10.37;4.10;;;;;;;20.79;100.00;63024.88;5094008;28;20203;-74
2022/06/06 09:16:52;;;;;;;8.10;3.73;;;;;;;20.66;100.00;63013.41;5094481;28;20231;-73
2022/06/06 09:19:50;;;;;;;13.00;4.10;;;;;;;19.90;100.00;62931.19;5095286;28;20241;-73
2022/06/06 09:22:41;;;;;;;8.17;4.93;;;;;;;20.25;100.00;62969.06;5089984;28;20239;-73
2022/06/06 09:25:35;;;;;;;7.63;4.23;;;;;;;20.20;100.00;62966.25;5094119;28;20196;-75
2022/06/06 09:28:37;;;;;;;10.23;4.23;;;;;;;20.14;100.00;62957.16;5093801;28;20218;-74
2022/06/06 09:31:44;;;;;;;11.07;4.17;;;;;;;19.94;100.00;62932.94;5084837;28;20239;-75
2022/06/06 09:34:51;;;;;;;14.60;4.30;;;;;;;20.12;100.00;62954.97;5094077;28;20246;-75
2022/06/06 09:37:34;;;;;;;11.07;4.50;;;;;;;20.08;100.00;62948.06;5091524;28;20234;-74
2022/06/06 09:40:20;;;;;;;14.23;4.63;;;;;;;20.17;100.00;62960.38;5094439;28;20222;-73
2022/06/06 09:43:15;;;;;;;14.70;4.67;;;;;;;20.06;100.00;62945.91;5093390;28;20215;-75
2022/06/06 09:46:16;;;;;;;5.50;3.90;;;;;;;20.21;100.00;62962.13;5093760;28;20200;-73
2022/06/06 09:49:18;;;;;;;7.53;4.20;;;;;;;20.40;100.00;62982.16;5093532;28;20261;-75
2022/06/06 09:52:22;;;;;;;14.60;4.93;;;;;;;20.35;100.00;62977.28;5083156;28;20252;-74
2022/06/06 10:01:44;;;;;;;9.60;4.50;;;;;;;21.20;100.00;63068.16;5093345;28;20238;-76
2022/06/06 10:04:40;;;;;;;9.97;4.10;;;;;;;21.11;100.00;63058.97;5093611;28;20628;-75
2022/06/06 10:07:54;;;;;;;9.33;4.53;;;;;;;22.20;100.00;63179.06;5075467;28;20218;-73
2022/06/06 10:11:01;;;;;;;9.20;4.17;;;;;;;22.22;100.00;63178.63;5011089;28;20318;-74
2022/06/06 10:13:52;;;;;;;9.33;4.20;;;;;;;22.22;100.00;63176.03;5081649;28;20249;-74
2022/06/06 10:16:35;;;;;;;11.63;4.07;;;;;;;22.34;100.00;63191.63;5092498;28;20228;-74
2022/06/06 10:19:36;;;;;;;8.57;4.10;;;;;;;22.37;100.00;63194.88;5081872;28;20654;-74
2022/06/06 10:22:39;;;;;;;4.27;3.70;;;;;;;22.21;100.00;63180.16;5063759;28;20324;-74
2022/06/06 10:25:30;;;;;;;3.70;3.30;;;;;;;22.29;100.00;63186.22;5092938;28;20207;-75
2022/06/06 10:28:31;;;;;;;7.00;4.10;;;;;;;22.60;100.00;63217.22;5092933;28;20212;-74
2022/06/06 10:31:09;;;;;;;5.93;3.67;;;;;;;22.50;100.00;63211.00;5092663;28;20559;-74
2022/06/06 10:33:59;;;;;;;6.53;3.23;;;;;;;22.62;100.00;63221.44;5092006;28;20206;-74
2022/06/06 10:37:00;;;;;;;10.30;4.37;;;;;;;22.55;100.00;63211.25;5092481;28;20305;-74
2022/06/06 10:39:53;;;;;;;8.37;3.97;;;;;;;22.32;100.00;63188.91;5092401;28;20221;-74
2022/06/06 10:42:51;;;;;;;7.20;3.60;;;;;;;21.51;100.00;63101.72;5092563;28;20220;-75
2022/06/06 10:45:26;;;;;;;5.60;3.70;;;;;;;22.41;100.00;63199.22;5078526;28;20203;-75
2022/06/06 10:48:18;;;;;;;5.37;3.47;;;;;;;22.44;100.00;63202.44;5092419;28;20227;-75
2022/06/06 10:54:23;;;;;;;5.67;3.80;;;;;;;22.28;100.00;63182.53;5092792;28;20210;-75
2022/06/06 10:57:22;;;;;;;5.07;3.20;;;;;;;22.11;100.00;63166.16;5092515;28;20227;-74
2022/06/06 11:00:13;;;;;;;8.97;3.70;;;;;;;22.15;100.00;63170.50;5085840;28;20196;-76
2022/06/06 11:03:12;;;;;;;8.03;3.80;;;;;;;22.12;100.00;63167.78;5092812;28;20226;-73
2022/06/06 11:06:13;;;;;;;4.30;3.20;;;;;;;21.75;100.00;63130.84;5092704;28;20207;-75
2022/06/06 11:09:02;;;;;;;5.90;3.00;;;;;;;22.24;100.00;63180.78;5092486;28;20199;-74
2022/06/06 11:11:58;;;;;;;8.13;3.70;;;;;;;22.34;100.00;63191.63;5091954;28;20678;-77
2022/06/06 11:14:32;;;;;;;8.07;4.17;;;;;;;22.53;100.00;63207.03;5092042;28;20202;-74
2022/06/06 11:17:51;;;;;;;14.00;4.57;;;;;;;22.74;100.00;63231.31;5092365;28;20313;-74
2022/06/06 11:20:49;;;;;;;5.80;3.20;;;;;;;22.66;100.00;63223.16;5092139;28;20207;-74
2022/06/06 11:23:31;;;;;;;7.50;3.37;;;;;;;22.68;100.00;63225.88;5092574;28;20222;-73
2022/06/06 11:26:23;;;;;;;9.10;4.70;;;;;;;22.70;100.00;63229.56;5092708;28;20666;-73
2022/06/06 11:29:19;;;;;;;4.57;3.70;;;;;;;22.90;100.00;63251.25;5091986;28;20200;-74
2022/06/06 11:31:58;;;;;;;5.13;3.60;;;;;;;22.83;100.00;63243.66;5091972;28;20206;-75
2022/06/06 11:34:52;;;;;;;10.03;3.37;;;;;;;23.20;100.00;63284.28;5073873;28;20266;-73
2022/06/06 11:37:50;;;;;;;6.77;3.83;;;;;;;23.54;100.00;63320.66;5090756;28;20356;-76
2022/06/06 11:40:45;;;;;;;4.77;3.50;;;;;;;23.56;100.00;63317.63;5091321;28;20206;-73
2022/06/06 11:43:36;;;;;;;4.63;4.00;;;;;;;23.63;100.00;63330.41;5091510;28;20282;-74
2022/06/06 11:46:39;;;;;;;5.53;3.30;;;;;;;23.78;100.00;63346.13;5091614;28;20203;-75
2022/06/06 11:49:32;;;;;;;3.80;3.40;;;;;;;23.87;100.00;63356.44;5091688;28;20688;-75
2022/06/06 11:52:40;;;;;;;4.90;4.13;;;;;;;23.86;100.00;63355.34;5091883;28;20199;-75
2022/06/06 11:55:32;;;;;;;8.43;3.90;;;;;;;24.03;100.00;63373.81;5079686;28;20678;-74
2022/06/06 11:58:51;;;;;;;7.80;3.90;;;;;;;24.33;100.00;63411.03;5091472;28;20730;-74
2022/06/06 12:01:38;;;;;;;4.87;3.43;;;;;;;24.60;100.00;63431.97;5091418;28;20201;-73
2022/06/06 12:04:47;;;;;;;7.10;4.00;;;;;;;24.49;100.00;63422.66;5091416;28;20231;-75
2022/06/06 12:07:44;;;;;;;7.07;3.50;;;;;;;24.58;100.00;63432.41;5009369;28;20705;-74
2022/06/06 12:10:18;;;;;;;4.70;3.60;;;;;;;24.52;100.00;63425.91;5091994;28;20261;-74
2022/06/06 12:13:22;;;;;;;6.57;3.80;;;;;;;24.16;100.00;63387.94;5091454;28;20646;-73
2022/06/06 12:16:18;;;;;;;5.67;3.80;;;;;;;23.70;100.00;63338.00;5090901;28;20257;-74
2022/06/06 12:19:06;;;;;;;6.67;3.90;;;;;;;24.05;100.00;63375.44;5087072;28;20674;-75
2022/06/06 12:21:59;;;;;;;4.93;3.90;;;;;;;23.96;100.00;63368.81;5091456;28;20212;-75
2022/06/06 12:25:04;;;;;;;6.37;3.90;;;;;;;23.83;100.00;63352.09;5091414;28;20291;-73
2022/06/06 12:27:58;;;;;;;6.33;4.00;;;;;;;23.83;100.00;63351.53;5090929;28;20207;-77
2022/06/06 12:30:43;;;;;;;6.30;3.57;;;;;;;23.47;100.00;63313.59;5091436;28;20253;-74
2022/06/06 12:33:14;;;;;;;8.67;4.23;;;;;;;23.75;100.00;63343.41;5091272;28;20203;-75
2022/06/06 12:35:51;;;;;;;7.97;3.63;;;;;;;23.29;100.00;63294.06;5091047;28;20231;-74
2022/06/06 12:38:33;;;;;;;8.03;4.07;;;;;;;23.79;100.00;63347.22;5078443;28;20234;-74
2022/06/06 12:41:11;;;;;;;12.77;4.30;;;;;;;23.86;100.00;63350.16;5091008;28;20223;-74
2022/06/06 12:43:58;;;;;;;8.23;3.97;;;;;;;23.68;100.00;63335.28;5092231;28;20386;-76
2022/06/06 12:46:54;;;;;;;5.33;3.27;;;;;;;23.74;100.00;63342.34;5093881;28;20204;-76
2022/06/06 12:49:36;;;;;;;6.90;3.27;;;;;;;24.04;100.00;63377.50;5091305;28;20228;-74
2022/06/06 12:52:23;;;;;;;5.80;3.30;;;;;;;23.27;100.00;63286.16;5090859;28;20660;-74